sensor_id;sensor_type;location;lat;lon;timestamp;pressure;altitude;pressure_sealevel;temperature;humidity
26443;BME280;5563;52.296;6.806;2023-02-21T00:00:15;101879.47;;;8.33;87.91
26443;BME280;5563;52.296;6.806;2023-02-21T00:03:14;101846.97;;;8.12;87.88
26443;BME280;5563;52.296;6.806;2023-02-21T00:06:09;101864.09;;;8.22;87.96
26443;BME280;5563;52.296;6.806;2023-02-21T00:09:07;101853.56;;;8.21;88.02
26443;BME280;5563;52.296;6.806;2023-02-21T00:11:59;101861.13;;;8.28;88.01
26443;BME280;5563;52.296;6.806;2023-02-21T00:14:52;101853.56;;;8.21;88.01
26443;BME280;5563;52.296;6.806;2023-02-21T00:17:45;101879.72;;;8.28;87.96
26443;BME280;5563;52.296;6.806;2023-02-21T00:20:30;101859.66;;;8.23;88.11
26443;BME280;5563;52.296;6.806;2023-02-21T00:23:22;101855.06;;;8.09;88.14
26443;BME280;5563;52.296;6.806;2023-02-21T00:26:08;101876.13;;;8.29;88.29
26443;BME280;5563;52.296;6.806;2023-02-21T00:29:02;101847.78;;;8.13;88.10
26443;BME280;5563;52.296;6.806;2023-02-21T00:32:02;101848.66;;;8.13;88.32
26443;BME280;5563;52.296;6.806;2023-02-21T00:34:54;101838.53;;;8.20;88.10
26443;BME280;5563;52.296;6.806;2023-02-21T00:37:40;101847.03;;;8.11;88.29
26443;BME280;5563;52.296;6.806;2023-02-21T00:40:41;101861.75;;;8.33;88.39
26443;BME280;5563;52.296;6.806;2023-02-21T00:43:32;101845.59;;;8.21;88.21
26443;BME280;5563;52.296;6.806;2023-02-21T00:46:24;101824.94;;;8.10;88.47
26443;BME280;5563;52.296;6.806;2023-02-21T00:49:12;101859.00;;;8.35;88.37
26443;BME280;5563;52.296;6.806;2023-02-21T00:52:06;101836.34;;;8.12;88.26
26443;BME280;5563;52.296;6.806;2023-02-21T00:54:52;101859.88;;;8.35;88.32
26443;BME280;5563;52.296;6.806;2023-02-21T00:57:44;101816.88;;;8.12;88.39
26443;BME280;5563;52.296;6.806;2023-02-21T01:00:32;101819.53;;;8.12;88.40
26443;BME280;5563;52.296;6.806;2023-02-21T01:03:31;101816.78;;;8.13;88.56
26443;BME280;5563;52.296;6.806;2023-02-21T01:06:32;101829.88;;;8.16;88.43
26443;BME280;5563;52.296;6.806;2023-02-21T01:09:24;101825.72;;;8.12;88.38
26443;BME280;5563;52.296;6.806;2023-02-21T01:12:16;101857.38;;;8.32;88.44
26443;BME280;5563;52.296;6.806;2023-02-21T01:15:05;101825.84;;;8.09;88.53
26443;BME280;5563;52.296;6.806;2023-02-21T01:17:59;101827.50;;;8.12;88.90
26443;BME280;5563;52.296;6.806;2023-02-21T01:20:55;101833.22;;;8.20;88.68
26443;BME280;5563;52.296;6.806;2023-02-21T01:23:47;101819.78;;;8.07;88.65
26443;BME280;5563;52.296;6.806;2023-02-21T01:26:33;101837.03;;;8.16;88.85
26443;BME280;5563;52.296;6.806;2023-02-21T01:32:49;101849.88;;;8.23;88.88
26443;BME280;5563;52.296;6.806;2023-02-21T01:35:53;101859.25;;;8.30;88.75
26443;BME280;5563;52.296;6.806;2023-02-21T01:42:11;101831.63;;;8.17;88.95
26443;BME280;5563;52.296;6.806;2023-02-21T01:48:41;101846.13;;;8.27;88.92
26443;BME280;5563;52.296;6.806;2023-02-21T01:51:41;101815.31;;;8.08;88.96
26443;BME280;5563;52.296;6.806;2023-02-21T01:54:35;101809.31;;;8.04;89.03
26443;BME280;5563;52.296;6.806;2023-02-21T01:57:31;101811.13;;;8.04;88.92
26443;BME280;5563;52.296;6.806;2023-02-21T02:00:24;101802.13;;;8.06;89.06
26443;BME280;5563;52.296;6.806;2023-02-21T02:03:24;101818.75;;;8.10;88.98
26443;BME280;5563;52.296;6.806;2023-02-21T02:06:18;101820.41;;;8.12;88.95
26443;BME280;5563;52.296;6.806;2023-02-21T02:09:26;101841.78;;;8.26;88.95
26443;BME280;5563;52.296;6.806;2023-02-21T02:29:46;101805.66;;;8.07;89.36
26443;BME280;5563;52.296;6.806;2023-02-21T02:35:30;101804.09;;;8.03;89.44
26443;BME280;5563;52.296;6.806;2023-02-21T02:41:20;101838.41;;;8.23;89.58
26443;BME280;5563;52.296;6.806;2023-02-21T02:44:03;101799.81;;;8.00;89.53
26443;BME280;5563;52.296;6.806;2023-02-21T02:46:33;101798.00;;;8.01;89.67
26443;BME280;5563;52.296;6.806;2023-02-21T02:49:19;101810.88;;;8.08;89.41
26443;BME280;5563;52.296;6.806;2023-02-21T02:51:55;101829.56;;;8.22;89.50
26443;BME280;5563;52.296;6.806;2023-02-21T02:54:34;101808.31;;;8.07;89.33
26443;BME280;5563;52.296;6.806;2023-02-21T02:57:07;101798.09;;;7.99;89.48
26443;BME280;5563;52.296;6.806;2023-02-21T02:59:46;101814.31;;;8.10;89.30
26443;BME280;5563;52.296;6.806;2023-02-21T03:07:58;101801.28;;;8.06;89.44
26443;BME280;5563;52.296;6.806;2023-02-21T03:10:51;101798.00;;;8.01;89.71
26443;BME280;5563;52.296;6.806;2023-02-21T03:13:21;101835.81;;;8.21;89.60
26443;BME280;5563;52.296;6.806;2023-02-21T03:16:22;101802.53;;;7.99;89.85
26443;BME280;5563;52.296;6.806;2023-02-21T03:19:06;101836.66;;;8.22;89.76
26443;BME280;5563;52.296;6.806;2023-02-21T03:22:08;101815.41;;;8.06;89.55
26443;BME280;5563;52.296;6.806;2023-02-21T03:24:38;101807.94;;;7.97;89.86
26443;BME280;5563;52.296;6.806;2023-02-21T03:27:21;101807.72;;;8.02;89.73
26443;BME280;5563;52.296;6.806;2023-02-21T03:29:55;101843.78;;;8.21;89.96
26443;BME280;5563;52.296;6.806;2023-02-21T03:32:43;101822.59;;;8.04;89.79
26443;BME280;5563;52.296;6.806;2023-02-21T03:35:13;101824.16;;;8.08;89.97
26443;BME280;5563;52.296;6.806;2023-02-21T03:37:57;101818.34;;;8.02;89.77
26443;BME280;5563;52.296;6.806;2023-02-21T03:40:30;101843.16;;;8.16;89.75
26443;BME280;5563;52.296;6.806;2023-02-21T03:43:05;101811.38;;;7.99;89.76
26443;BME280;5563;52.296;6.806;2023-02-21T03:45:35;101819.25;;;8.01;89.96
26443;BME280;5563;52.296;6.806;2023-02-21T03:48:09;101840.09;;;8.08;89.75
26443;BME280;5563;52.296;6.806;2023-02-21T03:50:58;101849.94;;;8.22;89.73
26443;BME280;5563;52.296;6.806;2023-02-21T03:53:34;101820.28;;;7.98;89.98
26443;BME280;5563;52.296;6.806;2023-02-21T03:56:02;101846.53;;;8.20;89.98
26443;BME280;5563;52.296;6.806;2023-02-21T03:58:35;101831.75;;;7.99;89.98
26443;BME280;5563;52.296;6.806;2023-02-21T04:01:04;101835.00;;;8.04;90.19
26443;BME280;5563;52.296;6.806;2023-02-21T04:07:18;101831.63;;;8.02;89.95
26443;BME280;5563;52.296;6.806;2023-02-21T04:09:57;101864.34;;;8.18;90.25
26443;BME280;5563;52.296;6.806;2023-02-21T04:12:24;101841.97;;;8.06;90.12
26443;BME280;5563;52.296;6.806;2023-02-21T04:15:01;101857.31;;;8.17;90.11
26443;BME280;5563;52.296;6.806;2023-02-21T04:17:28;101843.84;;;8.04;89.96
26443;BME280;5563;52.296;6.806;2023-02-21T04:20:02;101867.06;;;8.16;90.15
26443;BME280;5563;52.296;6.806;2023-02-21T04:22:29;101867.06;;;8.16;90.22
26443;BME280;5563;52.296;6.806;2023-02-21T04:25:05;101869.66;;;8.18;89.98
26443;BME280;5563;52.296;6.806;2023-02-21T04:27:39;101854.25;;;8.09;89.99
26443;BME280;5563;52.296;6.806;2023-02-21T04:30:06;101842.28;;;8.00;90.03
26443;BME280;5563;52.296;6.806;2023-02-21T04:32:41;101829.47;;;7.93;90.06
26443;BME280;5563;52.296;6.806;2023-02-21T04:35:09;101825.94;;;7.92;89.99
26443;BME280;5563;52.296;6.806;2023-02-21T04:37:45;101846.41;;;8.06;89.85
26443;BME280;5563;52.296;6.806;2023-02-21T04:40:14;101857.03;;;8.06;90.21
26443;BME280;5563;52.296;6.806;2023-02-21T04:42:48;101841.47;;;8.00;90.15
26443;BME280;5563;52.296;6.806;2023-02-21T04:45:15;101838.72;;;8.01;89.98
26443;BME280;5563;52.296;6.806;2023-02-21T04:47:49;101823.97;;;7.96;90.23
26443;BME280;5563;52.296;6.806;2023-02-21T04:50:17;101844.72;;;8.05;89.98
26443;BME280;5563;52.296;6.806;2023-02-21T04:52:53;101835.19;;;8.01;90.15
26443;BME280;5563;52.296;6.806;2023-02-21T04:55:20;101834.09;;;8.05;90.14
26443;BME280;5563;52.296;6.806;2023-02-21T04:57:57;101823.28;;;7.92;90.35
26443;BME280;5563;52.296;6.806;2023-02-21T05:00:30;101858.41;;;8.13;90.32
26443;BME280;5563;52.296;6.806;2023-02-21T05:02:58;101847.38;;;8.05;90.43
26443;BME280;5563;52.296;6.806;2023-02-21T05:05:34;101849.06;;;8.06;90.23
26443;BME280;5563;52.296;6.806;2023-02-21T05:08:11;101844.03;;;8.01;90.77
26443;BME280;5563;52.296;6.806;2023-02-21T05:10:59;101826.84;;;7.91;90.44
26443;BME280;5563;52.296;6.806;2023-02-21T05:13:26;101842.38;;;7.99;90.54
26443;BME280;5563;52.296;6.806;2023-02-21T05:16:03;101856.94;;;8.07;90.58
26443;BME280;5563;52.296;6.806;2023-02-21T05:18:30;101814.03;;;7.84;90.85
26443;BME280;5563;52.296;6.806;2023-02-21T05:21:09;101834.06;;;7.89;90.91
26443;BME280;5563;52.296;6.806;2023-02-21T05:23:45;101842.97;;;7.88;91.02
26443;BME280;5563;52.296;6.806;2023-02-21T05:26:34;101829.34;;;7.79;91.24
26443;BME280;5563;52.296;6.806;2023-02-21T05:29:04;101861.84;;;7.99;91.04
26443;BME280;5563;52.296;6.806;2023-02-21T05:31:37;101829.47;;;7.76;91.47
26443;BME280;5563;52.296;6.806;2023-02-21T05:34:15;101826.13;;;7.72;91.28
26443;BME280;5563;52.296;6.806;2023-02-21T05:36:58;101842.34;;;7.83;91.22
26443;BME280;5563;52.296;6.806;2023-02-21T05:39:28;101839.78;;;7.82;91.34
26443;BME280;5563;52.296;6.806;2023-02-21T05:42:06;101832.06;;;7.77;91.55
26443;BME280;5563;52.296;6.806;2023-02-21T05:44:44;101813.97;;;7.68;91.78
26443;BME280;5563;52.296;6.806;2023-02-21T05:47:13;101811.47;;;7.65;91.71
26443;BME280;5563;52.296;6.806;2023-02-21T05:49:49;101845.78;;;7.85;92.06
26443;BME280;5563;52.296;6.806;2023-02-21T05:52:17;101825.22;;;7.73;92.27
26443;BME280;5563;52.296;6.806;2023-02-21T05:55:04;101824.56;;;7.68;92.02
26443;BME280;5563;52.296;6.806;2023-02-21T05:57:37;101828.00;;;7.70;92.09
26443;BME280;5563;52.296;6.806;2023-02-21T06:00:18;101829.06;;;7.68;92.09
26443;BME280;5563;52.296;6.806;2023-02-21T06:02:58;101829.06;;;7.68;92.16
26443;BME280;5563;52.296;6.806;2023-02-21T06:05:32;101821.31;;;7.63;92.25
26443;BME280;5563;52.296;6.806;2023-02-21T06:08:15;101814.47;;;7.59;92.30
26443;BME280;5563;52.296;6.806;2023-02-21T06:10:48;101818.91;;;7.58;92.42
26443;BME280;5563;52.296;6.806;2023-02-21T06:13:16;101827.56;;;7.62;92.67
26443;BME280;5563;52.296;6.806;2023-02-21T06:15:49;101850.81;;;7.74;92.81
26443;BME280;5563;52.296;6.806;2023-02-21T06:18:19;101850.88;;;7.73;92.82
26443;BME280;5563;52.296;6.806;2023-02-21T06:20:47;101814.00;;;7.51;92.78
26443;BME280;5563;52.296;6.806;2023-02-21T06:23:34;101847.47;;;7.71;93.08
26443;BME280;5563;52.296;6.806;2023-02-21T06:26:02;101843.25;;;7.66;93.19
26443;BME280;5563;52.296;6.806;2023-02-21T06:28:36;101851.91;;;7.70;93.02
26443;BME280;5563;52.296;6.806;2023-02-21T06:31:03;101835.72;;;7.59;93.19
26443;BME280;5563;52.296;6.806;2023-02-21T06:33:38;101807.22;;;7.45;93.29
26443;BME280;5563;52.296;6.806;2023-02-21T06:36:07;101857.28;;;7.68;93.14
26443;BME280;5563;52.296;6.806;2023-02-21T06:38:45;101827.44;;;7.48;93.06
26443;BME280;5563;52.296;6.806;2023-02-21T06:41:16;101823.94;;;7.47;93.21
26443;BME280;5563;52.296;6.806;2023-02-21T06:43:58;101860.03;;;7.67;93.44
26443;BME280;5563;52.296;6.806;2023-02-21T06:46:27;101840.31;;;7.55;93.60
26443;BME280;5563;52.296;6.806;2023-02-21T06:49:06;101821.34;;;7.46;93.42
26443;BME280;5563;52.296;6.806;2023-02-21T06:51:38;101831.72;;;7.50;93.40
26443;BME280;5563;52.296;6.806;2023-02-21T06:54:12;101816.22;;;7.43;93.62
26443;BME280;5563;52.296;6.806;2023-02-21T06:56:42;101815.44;;;7.41;93.74
26443;BME280;5563;52.296;6.806;2023-02-21T06:59:16;101824.72;;;7.49;93.71
26443;BME280;5563;52.296;6.806;2023-02-21T07:01:53;101819.88;;;7.40;93.56
26443;BME280;5563;52.296;6.806;2023-02-21T07:04:40;101832.59;;;7.51;93.59
26443;BME280;5563;52.296;6.806;2023-02-21T07:07:20;101837.81;;;7.52;93.98
26443;BME280;5563;52.296;6.806;2023-02-21T07:09:57;101857.47;;;7.65;93.85
26443;BME280;5563;52.296;6.806;2023-02-21T07:12:30;101861.75;;;7.68;93.92
26443;BME280;5563;52.296;6.806;2023-02-21T07:14:57;101811.84;;;7.42;93.93
26443;BME280;5563;52.296;6.806;2023-02-21T07:17:33;101842.88;;;7.57;93.83
26443;BME280;5563;52.296;6.806;2023-02-21T07:20:07;101814.41;;;7.43;93.72
26443;BME280;5563;52.296;6.806;2023-02-21T07:22:56;101830.09;;;7.48;93.72
26443;BME280;5563;52.296;6.806;2023-02-21T07:25:24;101826.66;;;7.46;93.68
26443;BME280;5563;52.296;6.806;2023-02-21T07:28:16;101864.34;;;7.70;93.84
26443;BME280;5563;52.296;6.806;2023-02-21T07:30:43;101840.16;;;7.58;94.02
26443;BME280;5563;52.296;6.806;2023-02-21T07:33:19;101853.06;;;7.64;93.72
26443;BME280;5563;52.296;6.806;2023-02-21T07:35:46;101837.88;;;7.51;93.91
26443;BME280;5563;52.296;6.806;2023-02-21T07:38:27;101827.63;;;7.45;93.79
26443;BME280;5563;52.296;6.806;2023-02-21T07:41:02;101850.06;;;7.55;94.03
26443;BME280;5563;52.296;6.806;2023-02-21T07:43:35;101860.34;;;7.61;93.67
26443;BME280;5563;52.296;6.806;2023-02-21T07:46:15;101844.84;;;7.53;93.81
26443;BME280;5563;52.296;6.806;2023-02-21T07:48:54;101880.88;;;7.75;93.94
26443;BME280;5563;52.296;6.806;2023-02-21T07:51:25;101871.13;;;7.75;93.89
26443;BME280;5563;52.296;6.806;2023-02-21T07:56:58;101876.44;;;7.75;93.86
26443;BME280;5563;52.296;6.806;2023-02-21T07:59:49;101880.78;;;7.76;93.82
26443;BME280;5563;52.296;6.806;2023-02-21T08:02:16;101859.41;;;7.62;93.60
26443;BME280;5563;52.296;6.806;2023-02-21T08:05:05;101848.09;;;7.58;94.09
26443;BME280;5563;52.296;6.806;2023-02-21T08:07:38;101859.16;;;7.66;94.12
26443;BME280;5563;52.296;6.806;2023-02-21T08:10:17;101838.59;;;7.54;93.73
26443;BME280;5563;52.296;6.806;2023-02-21T08:12:52;101841.31;;;7.53;93.99
26443;BME280;5563;52.296;6.806;2023-02-21T08:15:19;101887.06;;;7.75;94.00
26443;BME280;5563;52.296;6.806;2023-02-21T08:17:52;101855.38;;;7.55;93.71
26443;BME280;5563;52.296;6.806;2023-02-21T08:20:20;101893.09;;;7.77;93.88
26443;BME280;5563;52.296;6.806;2023-02-21T08:22:53;101882.22;;;7.66;93.72
26443;BME280;5563;52.296;6.806;2023-02-21T08:25:28;101878.38;;;7.72;93.71
26443;BME280;5563;52.296;6.806;2023-02-21T08:28:16;101869.16;;;7.61;93.85
26443;BME280;5563;52.296;6.806;2023-02-21T08:30:49;101858.94;;;7.54;93.75
26443;BME280;5563;52.296;6.806;2023-02-21T08:33:23;101886.00;;;7.78;93.83
26443;BME280;5563;52.296;6.806;2023-02-21T08:35:51;101868.16;;;7.64;93.74
26443;BME280;5563;52.296;6.806;2023-02-21T08:38:27;101861.13;;;7.63;94.04
26443;BME280;5563;52.296;6.806;2023-02-21T08:40:59;101866.22;;;7.68;93.67
26443;BME280;5563;52.296;6.806;2023-02-21T08:43:35;101862.94;;;7.62;93.95
26443;BME280;5563;52.296;6.806;2023-02-21T08:46:31;101888.50;;;7.81;93.75
26443;BME280;5563;52.296;6.806;2023-02-21T08:49:05;101867.03;;;7.68;93.63
26443;BME280;5563;52.296;6.806;2023-02-21T08:51:32;101868.69;;;7.71;93.61
26443;BME280;5563;52.296;6.806;2023-02-21T08:54:12;101859.09;;;7.68;93.60
26443;BME280;5563;52.296;6.806;2023-02-21T08:56:48;101877.75;;;7.84;93.54
26443;BME280;5563;52.296;6.806;2023-02-21T08:59:23;101856.91;;;7.76;93.71
26443;BME280;5563;52.296;6.806;2023-02-21T09:02:02;101882.00;;;7.86;93.33
26443;BME280;5563;52.296;6.806;2023-02-21T09:04:30;101858.69;;;7.76;93.68
26443;BME280;5563;52.296;6.806;2023-02-21T09:07:15;101849.94;;;7.74;93.33
26443;BME280;5563;52.296;6.806;2023-02-21T09:09:43;101860.56;;;7.74;93.43
26443;BME280;5563;52.296;6.806;2023-02-21T09:12:16;101862.91;;;7.80;93.52
26443;BME280;5563;52.296;6.806;2023-02-21T09:14:44;101863.78;;;7.80;93.56
26443;BME280;5563;52.296;6.806;2023-02-21T09:17:23;101848.31;;;7.71;93.53
26443;BME280;5563;52.296;6.806;2023-02-21T09:20:06;101859.47;;;7.78;93.33
26443;BME280;5563;52.296;6.806;2023-02-21T09:22:51;101849.09;;;7.73;93.34
26443;BME280;5563;52.296;6.806;2023-02-21T09:25:21;101864.28;;;7.87;93.43
26443;BME280;5563;52.296;6.806;2023-02-21T09:27:57;101869.50;;;7.88;93.38
26443;BME280;5563;52.296;6.806;2023-02-21T09:30:26;101850.22;;;7.85;93.19
26443;BME280;5563;52.296;6.806;2023-02-21T09:33:01;101866.94;;;7.87;93.56
26443;BME280;5563;52.296;6.806;2023-02-21T09:35:31;101864.03;;;7.91;93.32
26443;BME280;5563;52.296;6.806;2023-02-21T09:37:59;101883.00;;;8.01;93.22
26443;BME280;5563;52.296;6.806;2023-02-21T09:40:35;101893.53;;;8.02;93.18
26443;BME280;5563;52.296;6.806;2023-02-21T09:43:44;101856.16;;;7.90;92.98
26443;BME280;5563;52.296;6.806;2023-02-21T09:46:47;101838.13;;;7.79;93.00
26443;BME280;5563;52.296;6.806;2023-02-21T09:49:30;101849.84;;;7.92;93.12
26443;BME280;5563;52.296;6.806;2023-02-21T09:52:02;101856.75;;;7.95;93.18
26443;BME280;5563;52.296;6.806;2023-02-21T09:54:43;101873.66;;;8.09;93.07
26443;BME280;5563;52.296;6.806;2023-02-21T09:57:17;101848.09;;;7.91;92.97
26443;BME280;5563;52.296;6.806;2023-02-21T09:59:51;101839.91;;;7.96;92.86
26443;BME280;5563;52.296;6.806;2023-02-21T10:05:29;101878.47;;;8.18;92.69
26443;BME280;5563;52.296;6.806;2023-02-21T10:08:22;101838.94;;;7.97;92.63
26443;BME280;5563;52.296;6.806;2023-02-21T10:11:06;101857.81;;;8.08;92.65
26443;BME280;5563;52.296;6.806;2023-02-21T10:13:55;101840.41;;;8.02;92.49
26443;BME280;5563;52.296;6.806;2023-02-21T10:16:55;101876.38;;;8.25;92.42
26443;BME280;5563;52.296;6.806;2023-02-21T10:19:33;101880.69;;;8.27;92.43
26443;BME280;5563;52.296;6.806;2023-02-21T10:22:26;101862.72;;;8.15;92.36
26443;BME280;5563;52.296;6.806;2023-02-21T10:24:54;101862.38;;;8.21;92.38
26443;BME280;5563;52.296;6.806;2023-02-21T10:27:29;101859.88;;;8.18;92.21
26443;BME280;5563;52.296;6.806;2023-02-21T10:30:06;101887.44;;;8.33;92.26
26443;BME280;5563;52.296;6.806;2023-02-21T10:32:43;101863.41;;;8.19;92.06
26443;BME280;5563;52.296;6.806;2023-02-21T10:35:10;101861.53;;;8.21;92.08
26443;BME280;5563;52.296;6.806;2023-02-21T10:37:53;101855.69;;;8.14;92.01
26443;BME280;5563;52.296;6.806;2023-02-21T10:45:53;101858.66;;;8.25;91.79
26443;BME280;5563;52.296;6.806;2023-02-21T10:48:33;101853.72;;;8.18;91.68
26443;BME280;5563;52.296;6.806;2023-02-21T10:51:15;101850.81;;;8.22;92.01
26443;BME280;5563;52.296;6.806;2023-02-21T10:53:49;101897.50;;;8.43;91.83
26443;BME280;5563;52.296;6.806;2023-02-21T10:56:24;101864.72;;;8.27;91.83
26443;BME280;5563;52.296;6.806;2023-02-21T10:59:05;101874.16;;;8.33;91.63
26443;BME280;5563;52.296;6.806;2023-02-21T11:01:36;101890.22;;;8.47;91.66
26443;BME280;5563;52.296;6.806;2023-02-21T11:07:07;101892.69;;;8.50;91.57
26443;BME280;5563;52.296;6.806;2023-02-21T11:09:45;101888.75;;;8.41;91.24
26443;BME280;5563;52.296;6.806;2023-02-21T11:12:24;101863.53;;;8.33;91.23
26443;BME280;5563;52.296;6.806;2023-02-21T11:17:31;101857.28;;;8.34;91.32
26443;BME280;5563;52.296;6.806;2023-02-21T11:20:18;101894.31;;;8.52;91.16
26443;BME280;5563;52.296;6.806;2023-02-21T11:22:51;101888.41;;;8.47;91.12
26443;BME280;5563;52.296;6.806;2023-02-21T11:25:31;101874.09;;;8.34;91.35
26443;BME280;5563;52.296;6.806;2023-02-21T11:28:17;101862.16;;;8.26;91.45
26443;BME280;5563;52.296;6.806;2023-02-21T11:33:59;101887.88;;;8.41;91.63
26443;BME280;5563;52.296;6.806;2023-02-21T11:36:45;101843.78;;;8.21;91.81
26443;BME280;5563;52.296;6.806;2023-02-21T11:39:23;101868.00;;;8.32;91.76
26443;BME280;5563;52.296;6.806;2023-02-21T11:42:04;101867.91;;;8.34;91.96
26443;BME280;5563;52.296;6.806;2023-02-21T11:45:00;101853.00;;;8.31;91.70
26443;BME280;5563;52.296;6.806;2023-02-21T11:47:45;101838.47;;;8.21;91.75
26443;BME280;5563;52.296;6.806;2023-02-21T11:50:24;101875.28;;;8.44;91.94
26443;BME280;5563;52.296;6.806;2023-02-21T12:01:26;101867.66;;;8.38;91.78
26443;BME280;5563;52.296;6.806;2023-02-21T12:07:20;101870.06;;;8.43;91.82
26443;BME280;5563;52.296;6.806;2023-02-21T12:15:30;101856.84;;;8.41;91.97
26443;BME280;5563;52.296;6.806;2023-02-21T12:23:41;101815.84;;;8.14;91.98
26443;BME280;5563;52.296;6.806;2023-02-21T12:26:42;101860.69;;;8.36;91.89
26443;BME280;5563;52.296;6.806;2023-02-21T12:29:44;101822.97;;;8.14;91.79
26443;BME280;5563;52.296;6.806;2023-02-21T12:41:32;101843.94;;;8.35;92.17
26443;BME280;5563;52.296;6.806;2023-02-21T12:47:20;101813.81;;;8.19;92.17
26443;BME280;5563;52.296;6.806;2023-02-21T12:50:12;101802.50;;;8.16;92.14
26443;BME280;5563;52.296;6.806;2023-02-21T12:53:00;101816.91;;;8.27;92.10
26443;BME280;5563;52.296;6.806;2023-02-21T12:55:47;101815.28;;;8.25;92.15
26443;BME280;5563;52.296;6.806;2023-02-21T12:58:44;101803.31;;;8.16;92.07
26443;BME280;5563;52.296;6.806;2023-02-21T13:04:35;101827.53;;;8.43;92.32
26443;BME280;5563;52.296;6.806;2023-02-21T13:07:11;101798.56;;;8.23;92.16
26443;BME280;5563;52.296;6.806;2023-02-21T13:10:22;101829.34;;;8.42;92.21
26443;BME280;5563;52.296;6.806;2023-02-21T13:13:08;101802.66;;;8.28;92.02
26443;BME280;5563;52.296;6.806;2023-02-21T13:15:44;101797.69;;;8.22;92.21
26443;BME280;5563;52.296;6.806;2023-02-21T13:21:30;101805.94;;;8.33;92.18
26443;BME280;5563;52.296;6.806;2023-02-21T13:25:20;101816.13;;;8.41;92.48
26443;BME280;5563;52.296;6.806;2023-02-21T13:33:37;101797.63;;;8.39;92.43
26443;BME280;5563;52.296;6.806;2023-02-21T13:36:26;101801.22;;;8.38;92.51
26443;BME280;5563;52.296;6.806;2023-02-21T13:44:25;101771.22;;;8.21;92.19
26443;BME280;5563;52.296;6.806;2023-02-21T13:47:07;101785.63;;;8.32;92.39
26443;BME280;5563;52.296;6.806;2023-02-21T13:49:51;101774.41;;;8.27;92.35
26443;BME280;5563;52.296;6.806;2023-02-21T14:08:35;101749.19;;;8.19;92.43
26443;BME280;5563;52.296;6.806;2023-02-21T14:11:24;101758.47;;;8.27;92.63
26443;BME280;5563;52.296;6.806;2023-02-21T14:14:22;101757.50;;;8.28;92.64
26443;BME280;5563;52.296;6.806;2023-02-21T14:17:01;101748.78;;;8.26;92.65
26443;BME280;5563;52.296;6.806;2023-02-21T14:19:41;101763.84;;;8.41;92.50
26443;BME280;5563;52.296;6.806;2023-02-21T14:24:50;101733.16;;;8.20;92.50
26443;BME280;5563;52.296;6.806;2023-02-21T14:32:50;101741.91;;;8.22;92.56
26443;BME280;5563;52.296;6.806;2023-02-21T14:35:35;101725.19;;;8.20;92.75
26443;BME280;5563;52.296;6.806;2023-02-21T14:38:31;101746.81;;;8.30;92.68
26443;BME280;5563;52.296;6.806;2023-02-21T14:44:13;101749.38;;;8.31;92.80
26443;BME280;5563;52.296;6.806;2023-02-21T14:55:50;101765.72;;;8.39;92.89
26443;BME280;5563;52.296;6.806;2023-02-21T14:58:51;101770.28;;;8.37;93.07
26443;BME280;5563;52.296;6.806;2023-02-21T15:01:40;101758.91;;;8.35;93.11
26443;BME280;5563;52.296;6.806;2023-02-21T15:04:31;101748.13;;;8.21;92.79
26443;BME280;5563;52.296;6.806;2023-02-21T15:07:09;101762.66;;;8.31;92.84
26443;BME280;5563;52.296;6.806;2023-02-21T15:10:10;101771.75;;;8.27;92.91
26443;BME280;5563;52.296;6.806;2023-02-21T15:12:51;101759.72;;;8.20;93.01
26443;BME280;5563;52.296;6.806;2023-02-21T15:15:39;101754.75;;;8.14;92.93
26443;BME280;5563;52.296;6.806;2023-02-21T15:18:26;101746.97;;;8.11;92.84
26443;BME280;5563;52.296;6.806;2023-02-21T15:21:03;101741.22;;;8.03;93.06
26443;BME280;5563;52.296;6.806;2023-02-21T15:23:42;101737.81;;;8.01;92.99
26443;BME280;5563;52.296;6.806;2023-02-21T15:26:19;101725.97;;;7.91;93.11
26443;BME280;5563;52.296;6.806;2023-02-21T15:29:17;101755.09;;;8.08;93.05
26443;BME280;5563;52.296;6.806;2023-02-21T15:31:51;101750.81;;;8.06;93.19
26443;BME280;5563;52.296;6.806;2023-02-21T15:37:01;101722.47;;;7.91;93.23
26443;BME280;5563;52.296;6.806;2023-02-21T15:39:41;101729.66;;;7.89;93.32
26443;BME280;5563;52.296;6.806;2023-02-21T15:42:15;101753.66;;;8.03;93.23
26443;BME280;5563;52.296;6.806;2023-02-21T15:45:01;101756.03;;;8.07;93.28
26443;BME280;5563;52.296;6.806;2023-02-21T15:47:31;101725.44;;;7.85;93.52
26443;BME280;5563;52.296;6.806;2023-02-21T15:53:12;101734.88;;;7.90;93.32
26443;BME280;5563;52.296;6.806;2023-02-21T15:55:48;101716.72;;;7.83;93.19
26443;BME280;5563;52.296;6.806;2023-02-21T16:01:06;101722.88;;;7.83;93.32
26443;BME280;5563;52.296;6.806;2023-02-21T16:03:41;101732.91;;;7.94;93.16
26443;BME280;5563;52.296;6.806;2023-02-21T16:06:21;101754.59;;;8.02;93.14
26443;BME280;5563;52.296;6.806;2023-02-21T16:09:17;101741.75;;;7.94;93.22
26443;BME280;5563;52.296;6.806;2023-02-21T16:17:40;101721.69;;;7.89;93.43
26443;BME280;5563;52.296;6.806;2023-02-21T16:20:29;101725.22;;;7.89;93.31
26443;BME280;5563;52.296;6.806;2023-02-21T16:25:59;101719.72;;;7.77;93.13
26443;BME280;5563;52.296;6.806;2023-02-21T16:28:35;101723.75;;;7.84;93.34
26443;BME280;5563;52.296;6.806;2023-02-21T16:31:15;101716.91;;;7.80;93.16
26443;BME280;5563;52.296;6.806;2023-02-21T16:33:50;101714.41;;;7.77;93.35
26443;BME280;5563;52.296;6.806;2023-02-21T16:36:30;101713.66;;;7.75;93.06
26443;BME280;5563;52.296;6.806;2023-02-21T16:39:04;101717.06;;;7.77;93.11
26443;BME280;5563;52.296;6.806;2023-02-21T16:41:31;101730.75;;;7.85;93.27
26443;BME280;5563;52.296;6.806;2023-02-21T16:44:05;101729.16;;;7.82;93.47
26443;BME280;5563;52.296;6.806;2023-02-21T16:46:32;101726.66;;;7.79;93.43
26443;BME280;5563;52.296;6.806;2023-02-21T16:49:08;101752.38;;;7.94;93.18
26443;BME280;5563;52.296;6.806;2023-02-21T16:51:42;101720.75;;;7.74;93.16
26443;BME280;5563;52.296;6.806;2023-02-21T16:54:16;101722.63;;;7.72;93.24
26443;BME280;5563;52.296;6.806;2023-02-21T16:56:45;101739.09;;;7.79;93.18
26443;BME280;5563;52.296;6.806;2023-02-21T16:59:15;101725.34;;;7.71;93.50
26443;BME280;5563;52.296;6.806;2023-02-21T17:01:49;101724.50;;;7.70;93.17
26443;BME280;5563;52.296;6.806;2023-02-21T17:04:26;101728.69;;;7.74;93.51
26443;BME280;5563;52.296;6.806;2023-02-21T17:07:09;101721.84;;;7.70;93.35